Time;durP1;ratioP1;P1;durP2;ratioP2;P2;SDS_P1;SDS_P2;PMS_P1;PMS_P2;Temp;Humidity;BMP_temperature;BMP_pressure;BME280_temperature;BME280_humidity;BME280_pressure;Samples;Min_cycle;Max_cycle;Signal;HPM_P1;HPM_P2
2024/02/07 00:00:19;;;;;;;38.85;23.55;;;12.70;92.20;;;;;;5060399;28;20099;-76
2024/02/07 00:02:44;;;;;;;31.27;23.40;;;12.70;92.10;;;;;;5058493;28;20033;-84
2024/02/07 00:05:10;;;;;;;43.28;24.73;;;12.70;92.10;;;;;;5062819;28;20028;-84
2024/02/07 00:07:37;;;;;;;33.08;23.33;;;12.60;92.10;;;;;;5080315;28;20037;-81
2024/02/07 00:10:03;;;;;;;46.50;24.63;;;12.60;92.30;;;;;;5051920;28;20104;-84
2024/02/07 00:12:29;;;;;;;33.53;23.45;;;12.60;92.30;;;;;;5063981;28;20119;-85
2024/02/07 00:14:55;;;;;;;42.63;25.08;;;12.50;92.30;;;;;;5058551;28;20034;-84
2024/02/07 00:17:21;;;;;;;36.00;22.85;;;12.40;92.30;;;;;;5039003;28;20508;-84
2024/02/07 00:19:47;;;;;;;40.58;24.08;;;12.40;92.40;;;;;;5055860;28;20059;-84
2024/02/07 00:22:13;;;;;;;38.53;23.08;;;12.50;92.50;;;;;;5038040;28;20025;-83
2024/02/07 00:24:39;;;;;;;35.80;23.20;;;12.50;92.50;;;;;;5038471;28;20041;-84
2024/02/07 00:27:05;;;;;;;35.13;22.20;;;12.50;92.40;;;;;;5056167;28;20104;-84
2024/02/07 00:29:31;;;;;;;44.22;24.70;;;12.50;92.40;;;;;;5056497;28;20499;-83
2024/02/07 00:31:57;;;;;;;37.53;22.73;;;12.50;92.40;;;;;;5056161;28;20044;-83
2024/02/07 00:34:22;;;;;;;37.60;23.35;;;12.40;92.60;;;;;;5055849;28;20399;-85
2024/02/07 00:36:48;;;;;;;37.40;23.65;;;12.40;92.50;;;;;;5055806;28;20072;-84
2024/02/07 00:39:14;;;;;;;40.63;22.67;;;12.40;92.50;;;;;;5055823;28;20033;-84
2024/02/07 00:41:40;;;;;;;38.95;22.67;;;12.40;92.60;;;;;;5038274;28;20033;-83
2024/02/07 00:44:05;;;;;;;37.33;23.20;;;12.40;92.70;;;;;;5055843;28;20395;-84
2024/02/07 00:46:32;;;;;;;39.08;23.38;;;12.30;92.60;;;;;;5055600;28;20135;-83
2024/02/07 00:48:59;;;;;;;36.38;23.15;;;12.30;92.80;;;;;;5055579;28;20036;-84
2024/02/07 00:51:24;;;;;;;37.90;23.92;;;12.20;92.80;;;;;;5054846;28;20029;-82
2024/02/07 00:53:50;;;;;;;35.63;23.17;;;12.20;92.70;;;;;;5055036;28;20074;-84
2024/02/07 00:56:16;;;;;;;43.33;24.25;;;12.20;92.80;;;;;;5037175;28;20087;-83
2024/02/07 00:58:42;;;;;;;38.65;23.52;;;12.20;92.90;;;;;;5054918;28;20045;-83
2024/02/07 01:01:08;;;;;;;33.17;23.88;;;12.10;92.90;;;;;;5055369;28;20103;-82
2024/02/07 01:03:34;;;;;;;38.03;24.35;;;12.10;92.80;;;;;;5055260;28;20032;-84
2024/02/07 01:06:00;;;;;;;37.50;23.65;;;12.10;93.00;;;;;;5055471;28;20041;-83
2024/02/07 01:08:26;;;;;;;32.28;22.58;;;12.10;92.90;;;;;;5056508;28;20060;-84
2024/02/07 01:10:52;;;;;;;37.03;23.38;;;12.20;93.00;;;;;;5058472;28;20029;-82
2024/02/07 01:13:18;;;;;;;39.90;24.10;;;12.20;92.90;;;;;;5065288;28;20049;-78
2024/02/07 01:15:43;;;;;;;38.70;24.40;;;12.20;92.90;;;;;;5056582;28;20045;-83
2024/02/07 01:18:09;;;;;;;33.53;23.85;;;12.10;93.00;;;;;;5054505;28;20409;-83
2024/02/07 01:20:35;;;;;;;35.25;24.02;;;12.10;92.90;;;;;;5054411;28;20044;-83
2024/02/07 01:23:01;;;;;;;35.70;24.83;;;12.10;93.00;;;;;;5038999;28;20398;-82
2024/02/07 01:25:27;;;;;;;42.50;25.95;;;12.10;93.00;;;;;;5061988;28;20033;-82
2024/02/07 01:27:55;;;;;;;38.60;26.10;;;12.00;93.00;;;;;;5057665;28;20124;-84
2024/02/07 01:30:21;;;;;;;40.75;25.15;;;11.90;93.00;;;;;;5056373;28;20117;-83
2024/02/07 01:32:47;;;;;;;36.67;26.63;;;11.90;93.10;;;;;;5053978;28;20107;-83
2024/02/07 01:35:15;;;;;;;48.38;29.40;;;11.80;93.10;;;;;;5036279;28;20033;-82
2024/02/07 01:37:42;;;;;;;41.40;27.38;;;11.80;93.10;;;;;;5054074;28;20028;-83
2024/02/07 01:40:11;;;;;;;49.78;29.70;;;11.80;93.20;;;;;;5055998;28;20085;-84
2024/02/07 01:42:37;;;;;;;38.90;28.05;;;11.80;93.30;;;;;;5054250;28;20029;-83
2024/02/07 01:45:23;;;;;;;41.05;29.25;;;11.70;93.30;;;;;;5054576;28;20119;-82
2024/02/07 01:47:50;;;;;;;41.42;28.63;;;11.80;93.40;;;;;;5054493;28;20021;-85
2024/02/07 01:50:16;;;;;;;38.65;28.05;;;11.70;93.20;;;;;;5054271;28;20547;-84
2024/02/07 01:52:45;;;;;;;47.42;29.55;;;11.70;93.10;;;;;;5054054;28;20044;-82
2024/02/07 01:55:12;;;;;;;41.22;29.17;;;11.70;93.20;;;;;;5054294;28;20029;-84
2024/02/07 01:57:39;;;;;;;38.67;28.08;;;11.70;93.30;;;;;;5055391;28;20076;-82
2024/02/07 02:00:07;;;;;;;39.85;27.38;;;11.70;93.30;;;;;;5057294;28;20057;-81
2024/02/07 02:02:33;;;;;;;38.13;25.23;;;11.70;93.20;;;;;;5055709;28;20504;-85
2024/02/07 02:04:59;;;;;;;38.15;25.70;;;11.70;93.20;;;;;;5054080;28;20074;-82
2024/02/07 02:07:25;;;;;;;38.08;25.40;;;11.60;93.10;;;;;;5062620;28;20068;-82
2024/02/07 02:09:51;;;;;;;38.88;25.05;;;11.60;93.30;;;;;;5060478;28;20036;-83
2024/02/07 02:12:17;;;;;;;36.55;24.58;;;11.70;93.30;;;;;;5039243;28;20441;-84
2024/02/07 02:14:44;;;;;;;46.30;26.60;;;11.70;93.20;;;;;;5054426;28;20029;-83
2024/02/07 02:17:10;;;;;;;33.38;24.33;;;11.70;93.50;;;;;;5053958;28;20102;-84
2024/02/07 02:19:38;;;;;;;36.20;24.02;;;11.70;93.20;;;;;;5053722;28;20494;-85
2024/02/07 02:22:19;;;;;;;37.25;23.10;;;11.70;93.10;;;;;;5053370;28;20116;-83
2024/02/07 02:24:52;;;;;;;36.40;23.25;;;11.70;93.20;;;;;;5053487;28;20094;-82
2024/02/07 02:27:48;;;;;;;26.65;17.88;;;11.60;93.00;;;;;;5055126;28;20086;-84
2024/02/07 02:30:20;;;;;;;33.58;22.23;;;11.60;93.00;;;;;;5054801;28;20029;-81
2024/02/07 02:32:49;;;;;;;37.30;22.50;;;11.60;93.10;;;;;;5046540;28;20021;-82
2024/02/07 02:35:19;;;;;;;33.65;21.42;;;11.60;93.10;;;;;;5069654;28;20159;-83
2024/02/07 02:37:46;;;;;;;34.85;21.67;;;11.60;93.10;;;;;;5056741;28;20033;-83
2024/02/07 02:40:11;;;;;;;32.05;20.75;;;11.50;93.00;;;;;;5054253;28;20032;-83
2024/02/07 02:42:37;;;;;;;28.67;21.25;;;11.50;93.00;;;;;;5053366;28;20033;-84
2024/02/07 02:45:03;;;;;;;34.72;22.45;;;11.50;93.10;;;;;;5057547;28;20043;-81
2024/02/07 02:47:29;;;;;;;34.47;21.95;;;11.40;93.10;;;;;;5065681;28;20060;-83
2024/02/07 02:49:55;;;;;;;34.63;22.42;;;11.40;93.20;;;;;;5056080;28;20392;-83
2024/02/07 02:52:24;;;;;;;34.88;22.10;;;11.40;93.10;;;;;;5053272;28;20032;-83
2024/02/07 02:54:50;;;;;;;28.73;21.60;;;11.40;93.00;;;;;;5053242;28;20501;-82
2024/02/07 02:57:19;;;;;;;32.60;22.05;;;11.40;93.20;;;;;;5053303;28;20033;-83
2024/02/07 02:59:48;;;;;;;32.78;21.25;;;11.40;93.00;;;;;;5054495;28;20057;-83
2024/02/07 03:02:15;;;;;;;38.13;23.17;;;11.40;93.30;;;;;;5053683;28;20112;-83
2024/02/07 03:04:43;;;;;;;36.83;24.63;;;11.40;93.30;;;;;;5052774;28;20029;-82
2024/02/07 03:09:54;;;;;;;31.13;23.15;;;11.40;93.20;;;;;;5054325;28;20032;-82
2024/02/07 03:12:20;;;;;;;38.42;23.55;;;11.40;93.10;;;;;;5057204;28;20045;-83
2024/02/07 03:14:46;;;;;;;35.42;22.10;;;11.40;93.10;;;;;;5056980;28;20044;-82
2024/02/07 03:17:12;;;;;;;33.78;21.92;;;11.40;93.20;;;;;;5056902;28;20033;-83
2024/02/07 03:19:38;;;;;;;36.67;22.52;;;11.40;93.10;;;;;;5038899;28;20041;-84
2024/02/07 03:22:04;;;;;;;33.88;23.08;;;11.40;93.00;;;;;;5057013;28;20036;-83
2024/02/07 03:24:29;;;;;;;35.72;22.33;;;11.40;93.00;;;;;;5056921;28;20041;-82
2024/02/07 03:26:55;;;;;;;35.70;23.08;;;11.30;93.00;;;;;;5056347;28;20470;-83
2024/02/07 03:29:22;;;;;;;35.40;22.95;;;11.30;93.00;;;;;;5057097;28;20466;-83
2024/02/07 03:31:48;;;;;;;34.80;23.30;;;11.30;93.00;;;;;;5056581;28;20032;-83
2024/02/07 03:34:14;;;;;;;32.03;22.80;;;11.30;93.10;;;;;;5057260;28;20167;-82
2024/02/07 03:36:39;;;;;;;35.10;22.88;;;11.30;93.10;;;;;;5056726;28;20057;-82
2024/02/07 03:39:09;;;;;;;37.38;24.30;;;11.30;93.00;;;;;;5056712;28;20053;-83
2024/02/07 03:41:35;;;;;;;29.80;22.73;;;11.30;93.00;;;;;;5056289;28;20164;-83
2024/02/07 03:44:02;;;;;;;38.50;23.45;;;11.30;93.10;;;;;;5038777;28;20061;-82
2024/02/07 03:46:27;;;;;;;37.95;23.45;;;11.20;93.00;;;;;;5057113;28;20032;-83
2024/02/07 03:48:53;;;;;;;36.72;23.98;;;11.20;93.10;;;;;;5040042;28;20036;-83
2024/02/07 03:51:26;;;;;;;34.33;23.08;;;11.20;93.00;;;;;;5062978;28;20041;-83
2024/02/07 03:53:53;;;;;;;30.80;22.13;;;11.20;93.00;;;;;;5041505;28;20495;-82
2024/02/07 03:56:20;;;;;;;34.95;23.35;;;11.20;93.00;;;;;;5056405;28;20029;-84
2024/02/07 03:58:45;;;;;;;35.92;23.83;;;11.20;93.00;;;;;;5037632;28;20111;-84
2024/02/07 04:01:15;;;;;;;36.28;23.35;;;11.20;92.90;;;;;;5055854;28;20021;-83
2024/02/07 04:03:41;;;;;;;37.08;22.83;;;11.10;93.00;;;;;;5055633;28;20079;-84
2024/02/07 04:06:07;;;;;;;36.88;23.73;;;11.10;93.00;;;;;;5056523;28;20420;-82
2024/02/07 04:08:34;;;;;;;31.58;21.73;;;11.10;92.90;;;;;;5058901;28;20170;-84
2024/02/07 04:11:01;;;;;;;40.20;22.60;;;11.10;93.00;;;;;;5062164;28;20025;-82
2024/02/07 05:16:11;;;;;;;32.47;21.42;;;10.90;92.70;;;;;;5057263;28;20032;-83
2024/02/07 05:18:37;;;;;;;31.77;21.95;;;10.90;92.90;;;;;;5055674;28;20041;-83
2024/02/07 05:21:03;;;;;;;30.67;21.05;;;10.90;92.80;;;;;;5036783;28;20033;-85
2024/02/07 05:23:29;;;;;;;32.92;21.48;;;10.80;92.80;;;;;;5056296;28;20041;-85
2024/02/07 05:25:58;;;;;;;29.23;21.30;;;10.90;92.80;;;;;;5037270;28;20435;-83
2024/02/07 05:28:24;;;;;;;35.88;21.42;;;10.90;92.90;;;;;;5054858;28;20379;-84
2024/02/07 05:30:50;;;;;;;33.78;21.58;;;10.90;92.80;;;;;;5054288;28;20398;-84
2024/02/07 05:33:16;;;;;;;31.38;21.23;;;10.80;92.80;;;;;;5054192;28;20037;-84
2024/02/07 05:35:41;;;;;;;30.77;21.52;;;10.80;92.90;;;;;;5055796;28;20064;-83
2024/02/07 05:38:10;;;;;;;30.02;20.77;;;10.80;93.00;;;;;;5055717;28;20424;-80
2024/02/07 05:40:36;;;;;;;36.40;20.45;;;10.80;93.00;;;;;;5043478;28;20117;-84
2024/02/07 05:43:02;;;;;;;33.33;21.98;;;10.80;93.10;;;;;;5062528;28;20056;-84
2024/02/07 05:45:28;;;;;;;39.03;24.70;;;10.90;93.00;;;;;;5058916;28;20029;-85
2024/02/07 05:47:55;;;;;;;32.28;21.85;;;10.90;93.10;;;;;;5055295;28;20151;-83
2024/02/07 05:50:21;;;;;;;31.27;20.40;;;11.00;93.00;;;;;;5054495;28;20060;-83
2024/02/07 05:52:47;;;;;;;37.20;26.42;;;10.90;92.90;;;;;;5054198;28;20514;-84
2024/02/07 05:55:12;;;;;;;33.38;21.38;;;10.90;92.80;;;;;;5055213;28;20040;-85
2024/02/07 05:57:38;;;;;;;31.52;21.10;;;10.90;92.90;;;;;;5063654;28;20048;-84
2024/02/07 06:00:05;;;;;;;32.38;19.48;;;10.90;92.90;;;;;;5055194;28;20060;-83
2024/02/07 06:02:31;;;;;;;30.98;20.90;;;10.90;92.90;;;;;;5053908;28;20029;-85
2024/02/07 06:05:01;;;;;;;31.92;19.70;;;11.00;92.90;;;;;;5053710;28;20037;-84
2024/02/07 06:07:27;;;;;;;31.23;20.88;;;11.00;92.80;;;;;;5063391;28;20025;-83
2024/02/07 06:09:52;;;;;;;31.58;20.08;;;11.00;92.80;;;;;;5065067;28;20548;-84
2024/02/07 06:12:20;;;;;;;34.60;20.55;;;11.00;92.90;;;;;;5056787;28;20380;-84
2024/02/07 06:14:46;;;;;;;34.28;21.83;;;11.00;92.80;;;;;;5057537;28;20028;-83
2024/02/07 06:17:11;;;;;;;32.17;21.10;;;11.00;92.80;;;;;;5055397;28;20021;-83
2024/02/07 06:19:37;;;;;;;30.30;20.00;;;11.00;92.80;;;;;;5036028;28;20120;-85
2024/02/07 06:22:03;;;;;;;27.15;20.50;;;11.00;92.80;;;;;;5054458;28;20033;-83
2024/02/07 06:24:29;;;;;;;35.22;21.08;;;11.00;92.70;;;;;;5054094;28;20039;-84
2024/02/07 06:26:54;;;;;;;30.35;21.38;;;11.00;92.50;;;;;;5053984;28;20033;-85
2024/02/07 06:29:20;;;;;;;40.80;23.27;;;11.00;92.80;;;;;;5037780;28;20037;-84
2024/02/07 06:31:46;;;;;;;35.00;21.92;;;11.00;92.90;;;;;;5054149;28;20128;-84
2024/02/07 06:34:12;;;;;;;33.65;22.42;;;11.10;92.70;;;;;;5039712;28;20378;-83
2024/02/07 06:36:37;;;;;;;38.13;22.63;;;11.10;92.60;;;;;;5061852;28;20089;-84
2024/02/07 06:39:03;;;;;;;38.75;22.02;;;11.10;92.70;;;;;;5055657;28;20106;-84
2024/02/07 06:41:29;;;;;;;30.17;21.08;;;11.20;92.70;;;;;;5035718;28;20104;-85
2024/02/07 06:43:55;;;;;;;28.48;19.80;;;11.20;92.60;;;;;;5053289;28;20071;-84
2024/02/07 06:46:21;;;;;;;27.42;19.52;;;11.20;92.70;;;;;;5052864;28;20099;-84
2024/02/07 06:48:46;;;;;;;33.97;22.30;;;11.30;92.60;;;;;;5052765;28;20129;-78
2024/02/07 06:51:12;;;;;;;32.30;21.02;;;11.40;92.50;;;;;;5052471;28;20103;-80
2024/02/07 06:53:38;;;;;;;34.85;20.38;;;11.40;92.50;;;;;;5052456;28;20029;-77
2024/02/07 06:56:04;;;;;;;33.20;20.02;;;11.50;92.60;;;;;;5052503;28;20035;-77
2024/02/07 06:58:30;;;;;;;40.47;20.27;;;11.60;92.30;;;;;;5034231;28;20045;-75
2024/02/07 07:00:59;;;;;;;29.60;19.42;;;11.60;92.20;;;;;;5052160;28;20055;-76
2024/02/07 07:03:26;;;;;;;30.08;19.13;;;11.70;92.30;;;;;;5052205;28;20040;-75
2024/02/07 07:05:52;;;;;;;28.90;19.48;;;11.80;92.20;;;;;;5052562;28;20032;-76
2024/02/07 07:08:17;;;;;;;29.83;17.77;;;12.00;92.00;;;;;;5052231;28;20120;-76
2024/02/07 07:10:43;;;;;;;30.10;18.52;;;12.10;91.90;;;;;;5052142;28;20052;-78
2024/02/07 07:13:09;;;;;;;29.40;18.35;;;12.30;91.90;;;;;;5052408;28;20471;-76
2024/02/07 07:15:35;;;;;;;26.35;18.13;;;12.30;91.80;;;;;;5053057;28;20029;-77
2024/02/07 07:18:01;;;;;;;30.10;18.08;;;12.20;91.70;;;;;;5052906;28;20489;-79
2024/02/07 07:20:31;;;;;;;27.55;16.67;;;12.10;91.60;;;;;;5053671;28;20060;-78
2024/02/07 07:23:00;;;;;;;30.90;17.73;;;12.10;91.90;;;;;;5052495;28;20033;-77
2024/02/07 07:25:26;;;;;;;29.20;18.35;;;12.10;91.80;;;;;;5055769;28;20041;-77
2024/02/07 07:27:52;;;;;;;27.15;16.75;;;12.20;91.90;;;;;;5052800;28;20159;-77
2024/02/07 07:30:17;;;;;;;28.30;17.58;;;12.30;91.70;;;;;;5052692;28;20044;-77
2024/02/07 07:32:43;;;;;;;31.17;17.70;;;12.30;91.70;;;;;;5052495;28;20091;-77
2024/02/07 07:35:09;;;;;;;29.45;17.38;;;12.40;91.60;;;;;;5052220;28;20531;-78
2024/02/07 07:37:35;;;;;;;29.13;17.65;;;12.60;91.40;;;;;;5052091;28;20037;-77
2024/02/07 07:40:01;;;;;;;25.90;16.77;;;13.00;91.10;;;;;;5052596;28;20081;-77
2024/02/07 07:42:27;;;;;;;33.28;17.85;;;13.70;90.60;;;;;;5052030;28;20037;-77
2024/02/07 07:44:53;;;;;;;28.15;16.75;;;14.50;89.00;;;;;;5052277;28;20104;-78
2024/02/07 07:47:19;;;;;;;34.42;17.00;;;15.30;87.00;;;;;;5052223;28;20445;-77
2024/02/07 07:49:45;;;;;;;35.13;18.30;;;15.20;85.00;;;;;;5053155;28;20486;-78
2024/02/07 07:52:10;;;;;;;27.48;16.48;;;14.70;86.10;;;;;;5052445;28;20021;-78
2024/02/07 07:54:37;;;;;;;28.75;16.50;;;14.40;87.00;;;;;;5052956;28;20396;-79
2024/02/07 07:57:07;;;;;;;27.00;17.13;;;14.10;87.90;;;;;;5055342;28;20057;-79
2024/02/07 07:59:33;;;;;;;23.98;16.55;;;14.00;88.80;;;;;;5055980;28;20406;-76
2024/02/07 08:02:00;;;;;;;27.33;16.45;;;13.80;88.90;;;;;;5055799;28;20032;-73
2024/02/07 08:04:26;;;;;;;27.10;16.45;;;13.60;88.80;;;;;;5055660;28;20041;-71
2024/02/07 08:06:52;;;;;;;27.08;16.10;;;13.40;89.10;;;;;;5054968;28;20041;-74
2024/02/07 08:09:18;;;;;;;29.25;15.75;;;13.30;89.70;;;;;;5055345;28;20068;-71
2024/02/07 08:11:44;;;;;;;33.75;17.42;;;13.30;90.00;;;;;;5055303;28;20029;-74
2024/02/07 08:14:11;;;;;;;28.73;15.85;;;13.20;90.00;;;;;;5055072;28;20040;-75
2024/02/07 08:16:36;;;;;;;23.70;16.38;;;13.10;90.10;;;;;;5055271;28;20029;-74
2024/02/07 08:19:02;;;;;;;33.17;17.20;;;13.10;90.20;;;;;;5055385;28;20063;-73
2024/02/07 08:21:28;;;;;;;29.08;16.35;;;13.10;90.50;;;;;;5055194;28;20094;-72
2024/02/07 08:23:54;;;;;;;26.85;16.27;;;13.00;90.30;;;;;;5055567;28;20040;-74
2024/02/07 08:26:21;;;;;;;29.10;16.38;;;12.90;90.30;;;;;;5055376;28;20123;-74
2024/02/07 08:28:47;;;;;;;26.30;16.65;;;12.90;90.40;;;;;;5054657;28;20029;-73
2024/02/07 08:31:13;;;;;;;28.83;17.13;;;12.90;90.40;;;;;;5055075;28;20191;-73
2024/02/07 08:33:39;;;;;;;26.85;17.02;;;13.00;90.30;;;;;;5055036;28;20060;-73
2024/02/07 08:36:06;;;;;;;30.30;16.42;;;13.10;90.40;;;;;;5054972;28;20064;-74
2024/02/07 08:38:32;;;;;;;28.63;16.33;;;13.10;90.40;;;;;;5054606;28;20040;-72
2024/02/07 08:40:58;;;;;;;28.75;16.48;;;13.20;90.30;;;;;;5054635;28;20549;-73
2024/02/07 08:43:23;;;;;;;25.45;16.77;;;13.20;90.20;;;;;;5036982;28;20393;-73
2024/02/07 08:45:49;;;;;;;23.60;15.68;;;13.20;90.20;;;;;;5054955;28;20036;-74
2024/02/07 08:48:15;;;;;;;22.45;15.13;;;13.20;90.30;;;;;;5054914;28;20116;-73
2024/02/07 08:50:40;;;;;;;27.58;15.65;;;13.20;90.30;;;;;;5054187;28;20033;-74
2024/02/07 08:53:07;;;;;;;27.02;16.15;;;13.30;90.30;;;;;;5054942;28;20025;-73
2024/02/07 08:55:34;;;;;;;25.95;16.60;;;13.40;90.30;;;;;;5054633;28;20037;-72
2024/02/07 08:57:59;;;;;;;25.33;16.35;;;13.40;90.10;;;;;;5036622;28;20045;-70
2024/02/07 09:00:25;;;;;;;30.83;16.65;;;13.50;90.10;;;;;;5036454;28;20178;-70
2024/02/07 09:02:52;;;;;;;39.22;17.65;;;13.60;90.00;;;;;;5054649;28;20041;-74
2024/02/07 09:05:19;;;;;;;33.20;17.10;;;13.70;90.00;;;;;;5054498;28;20083;-70
2024/02/07 09:07:45;;;;;;;27.98;16.65;;;13.70;89.70;;;;;;5053446;28;20083;-73
2024/02/07 09:10:12;;;;;;;26.83;15.98;;;13.80;89.60;;;;;;5036132;28;20041;-72
2024/02/07 09:12:38;;;;;;;31.02;16.88;;;13.90;89.40;;;;;;5054347;28;20479;-71
2024/02/07 09:15:04;;;;;;;32.03;17.80;;;14.00;89.20;;;;;;5054179;28;20044;-69
2024/02/07 09:17:33;;;;;;;24.15;15.40;;;14.00;89.00;;;;;;5053852;28;20117;-69
2024/02/07 09:20:00;;;;;;;32.92;15.48;;;14.20;88.70;;;;;;5054281;28;20051;-73
2024/02/07 09:22:26;;;;;;;24.23;14.95;;;14.20;88.60;;;;;;5054069;28;20124;-73
2024/02/07 09:24:51;;;;;;;23.02;13.07;;;14.40;88.40;;;;;;5054031;28;20479;-73
2024/02/07 09:27:18;;;;;;;26.23;13.55;;;14.50;88.20;;;;;;5054118;28;20395;-72
2024/02/07 09:29:44;;;;;;;24.85;13.00;;;14.50;87.80;;;;;;5054471;28;20414;-72
2024/02/07 09:32:11;;;;;;;24.73;13.38;;;14.60;87.60;;;;;;5054097;28;20044;-70
2024/02/07 09:34:41;;;;;;;20.10;12.15;;;14.60;87.30;;;;;;5054228;28;20029;-73
2024/02/07 09:37:07;;;;;;;24.30;12.18;;;14.70;87.40;;;;;;5054153;28;20041;-74
2024/02/07 09:39:33;;;;;;;23.83;14.07;;;14.80;86.90;;;;;;5053841;28;20041;-74
2024/02/07 09:42:03;;;;;;;21.20;11.55;;;14.80;86.80;;;;;;5053816;28;20383;-73
2024/02/07 09:44:33;;;;;;;23.98;12.18;;;14.90;86.70;;;;;;5020006;28;20075;-73
2024/02/07 09:47:02;;;;;;;23.13;12.75;;;14.90;86.30;;;;;;5053709;28;20029;-73
2024/02/07 09:49:28;;;;;;;18.38;11.60;;;15.00;86.40;;;;;;5053259;28;20064;-74
2024/02/07 09:51:54;;;;;;;27.00;12.30;;;15.00;86.40;;;;;;5053564;28;20475;-72
2024/02/07 09:54:20;;;;;;;25.42;11.80;;;15.10;86.30;;;;;;5054004;28;20029;-72
2024/02/07 09:56:47;;;;;;;51.40;15.82;;;15.20;86.10;;;;;;5053619;28;20074;-72
2024/02/07 09:59:13;;;;;;;36.40;13.52;;;15.30;85.70;;;;;;5053184;28;20041;-72
2024/02/07 10:01:39;;;;;;;21.83;11.32;;;15.40;85.50;;;;;;5035162;28;20065;-73
2024/02/07 10:04:22;;;;;;;24.88;11.70;;;15.60;85.20;;;;;;5053409;28;20056;-73
2024/02/07 10:06:49;;;;;;;22.92;11.48;;;15.70;84.90;;;;;;5035316;28;20082;-71
2024/02/07 10:09:15;;;;;;;25.50;12.38;;;15.80;84.30;;;;;;5053284;28;20044;-71
2024/02/07 10:11:45;;;;;;;25.75;12.00;;;15.90;84.00;;;;;;5053221;28;20490;-72
2024/02/07 10:14:11;;;;;;;21.27;12.05;;;16.00;83.30;;;;;;5053045;28;20060;-71
2024/02/07 10:16:37;;;;;;;19.67;11.65;;;16.10;83.00;;;;;;5053244;28;20033;-73
2024/02/07 10:19:03;;;;;;;20.02;11.57;;;16.20;82.70;;;;;;5054233;28;20059;-73
2024/02/07 10:21:36;;;;;;;21.13;11.75;;;16.30;82.50;;;;;;5054765;28;20025;-72
2024/02/07 10:24:03;;;;;;;21.15;10.40;;;16.40;82.70;;;;;;5054208;28;20064;-73
2024/02/07 10:26:30;;;;;;;22.90;11.18;;;16.40;81.90;;;;;;5054405;28;20029;-73
2024/02/07 10:28:59;;;;;;;19.13;9.57;;;16.50;81.60;;;;;;5053943;28;20116;-74
2024/02/07 10:31:24;;;;;;;18.70;8.88;;;16.50;81.10;;;;;;5035795;28;20094;-73
2024/02/07 10:33:50;;;;;;;20.10;9.30;;;16.50;80.90;;;;;;5054524;28;20025;-72
2024/02/07 10:36:16;;;;;;;19.33;8.77;;;16.50;80.50;;;;;;5053137;28;20390;-72
2024/02/07 10:38:42;;;;;;;18.58;10.52;;;16.60;80.60;;;;;;5052718;28;20525;-73
2024/02/07 10:41:08;;;;;;;16.70;9.25;;;16.60;80.30;;;;;;5052477;28;20056;-72
2024/02/07 10:43:36;;;;;;;18.58;9.57;;;16.60;79.80;;;;;;5052971;28;20033;-72
2024/02/07 10:46:13;;;;;;;18.17;9.38;;;16.70;79.60;;;;;;5052536;28;20041;-72
2024/02/07 10:48:40;;;;;;;20.83;9.32;;;16.80;79.40;;;;;;5052399;28;20043;-72
2024/02/07 10:51:06;;;;;;;17.25;9.43;;;16.80;79.30;;;;;;5052555;28;20037;-72
2024/02/07 10:53:32;;;;;;;19.65;8.90;;;16.90;79.00;;;;;;5052695;28;20063;-72
2024/02/07 10:55:59;;;;;;;17.92;9.70;;;16.90;78.90;;;;;;5052280;28;20033;-72
2024/02/07 10:58:27;;;;;;;16.23;9.10;;;17.00;78.50;;;;;;5052273;28;20049;-73
2024/02/07 11:00:58;;;;;;;17.63;8.10;;;17.00;78.50;;;;;;5052989;28;20128;-72
2024/02/07 11:03:30;;;;;;;16.35;7.80;;;17.00;78.40;;;;;;5034914;28;20037;-73
2024/02/07 11:05:57;;;;;;;17.38;8.05;;;17.10;78.20;;;;;;5052982;28;20028;-72
2024/02/07 11:08:24;;;;;;;19.05;8.60;;;17.20;78.10;;;;;;5052596;28;20033;-72
2024/02/07 11:10:52;;;;;;;12.65;7.57;;;17.20;78.40;;;;;;5034349;28;20150;-72
2024/02/07 11:13:19;;;;;;;14.20;6.95;;;17.20;77.80;;;;;;5052598;28;20107;-73
2024/02/07 11:15:44;;;;;;;18.25;7.75;;;17.20;77.70;;;;;;5034655;28;20128;-72
2024/02/07 11:18:11;;;;;;;15.77;7.18;;;17.10;77.60;;;;;;5052342;28;20112;-72
2024/02/07 11:20:38;;;;;;;17.17;7.28;;;17.20;77.60;;;;;;5052120;28;20033;-74
2024/02/07 11:23:25;;;;;;;14.73;7.13;;;17.20;77.40;;;;;;5052284;28;20447;-72
2024/02/07 11:25:52;;;;;;;15.13;7.07;;;17.30;77.00;;;;;;5034858;28;20033;-71
2024/02/07 11:28:19;;;;;;;13.68;7.53;;;17.40;76.70;;;;;;5051920;28;20123;-74
2024/02/07 11:30:46;;;;;;;14.02;7.38;;;17.50;76.40;;;;;;5035172;28;20060;-73
2024/02/07 11:33:12;;;;;;;13.48;6.60;;;17.80;76.20;;;;;;5038057;28;20056;-74
2024/02/07 11:35:38;;;;;;;18.98;6.72;;;18.00;75.70;;;;;;5038521;28;20079;-72
2024/02/07 11:38:04;;;;;;;13.23;7.07;;;18.30;74.90;;;;;;5055902;28;20470;-72
2024/02/07 11:40:38;;;;;;;13.80;5.20;;;18.50;74.40;;;;;;5055984;28;20040;-70
2024/02/07 11:43:04;;;;;;;16.00;6.30;;;18.70;74.40;;;;;;5056030;28;20534;-73
2024/02/07 11:45:30;;;;;;;12.95;5.07;;;18.80;73.20;;;;;;5055675;28;20033;-70
2024/02/07 11:47:55;;;;;;;12.05;6.35;;;18.90;72.80;;;;;;5056054;28;20048;-71
2024/02/07 11:50:21;;;;;;;13.23;7.60;;;18.90;72.60;;;;;;5055640;28;20029;-72
2024/02/07 11:52:49;;;;;;;15.27;7.32;;;18.80;72.10;;;;;;5055622;28;20067;-71
2024/02/07 11:55:16;;;;;;;16.20;7.18;;;18.80;72.30;;;;;;5055509;28;20073;-71
2024/02/07 11:57:44;;;;;;;15.32;7.65;;;18.70;72.40;;;;;;5055815;28;20364;-71
2024/02/07 12:00:16;;;;;;;14.57;6.97;;;18.70;72.10;;;;;;5055275;28;20052;-71
2024/02/07 12:02:58;;;;;;;14.55;7.28;;;18.40;71.80;;;;;;5055432;28;20025;-71
2024/02/07 12:05:25;;;;;;;11.52;7.25;;;18.30;72.60;;;;;;5055603;28;20119;-71
2024/02/07 12:07:53;;;;;;;14.13;6.50;;;18.30;72.40;;;;;;5055782;28;20056;-71
2024/02/07 12:10:19;;;;;;;17.52;7.15;;;18.20;72.30;;;;;;5055689;28;20033;-70
2024/02/07 12:12:49;;;;;;;18.10;6.15;;;18.10;72.30;;;;;;5055190;28;20112;-72
2024/02/07 12:15:15;;;;;;;16.58;7.10;;;18.20;72.70;;;;;;5055313;28;20065;-72
2024/02/07 12:17:41;;;;;;;13.32;6.50;;;18.10;72.60;;;;;;5055200;28;20033;-74
2024/02/07 12:20:08;;;;;;;15.52;6.10;;;18.20;72.60;;;;;;5054884;28;20053;-71
2024/02/07 12:22:35;;;;;;;14.10;5.80;;;18.20;72.70;;;;;;5053645;28;20037;-74
2024/02/07 12:25:03;;;;;;;15.10;5.80;;;18.20;72.80;;;;;;5055058;28;20043;-70
2024/02/07 12:27:29;;;;;;;14.93;6.15;;;18.10;72.70;;;;;;5054859;28;20056;-73
2024/02/07 12:29:56;;;;;;;15.55;6.00;;;18.10;72.70;;;;;;5054850;28;20033;-72
2024/02/07 12:32:23;;;;;;;23.63;7.70;;;18.00;72.40;;;;;;5055430;28;20056;-73
2024/02/07 12:34:50;;;;;;;18.83;7.80;;;17.90;72.40;;;;;;5053837;28;20051;-71
2024/02/07 12:37:19;;;;;;;17.17;6.80;;;17.90;72.80;;;;;;5054761;28;20033;-72
2024/02/07 12:39:50;;;;;;;20.63;7.25;;;17.80;72.50;;;;;;5054633;28;20048;-73
2024/02/07 12:42:20;;;;;;;15.30;7.32;;;17.80;72.70;;;;;;5052869;28;20029;-73
2024/02/07 12:44:49;;;;;;;12.30;6.32;;;17.80;72.60;;;;;;5036772;28;20029;-75
2024/02/07 12:47:17;;;;;;;14.65;6.40;;;17.80;72.50;;;;;;5054774;28;20100;-76
2024/02/07 12:49:43;;;;;;;14.32;6.53;;;17.70;72.30;;;;;;5055152;28;20037;-75
2024/02/07 12:52:11;;;;;;;18.52;6.70;;;17.70;72.40;;;;;;5054853;28;20036;-75
2024/02/07 12:54:38;;;;;;;14.43;6.25;;;17.70;72.50;;;;;;5054064;28;20039;-75
2024/02/07 12:57:05;;;;;;;14.85;5.78;;;17.70;72.80;;;;;;5054224;28;20426;-76
2024/02/07 12:59:36;;;;;;;17.98;6.50;;;17.70;72.90;;;;;;5055196;28;20057;-75
2024/02/07 13:02:08;;;;;;;18.17;6.35;;;17.70;72.70;;;;;;5036212;28;20136;-74
2024/02/07 13:04:34;;;;;;;14.65;6.13;;;17.60;72.70;;;;;;5036037;28;20025;-75
2024/02/07 13:07:01;;;;;;;18.08;6.72;;;17.70;72.90;;;;;;5054272;28;20104;-75
2024/02/07 13:09:28;;;;;;;13.35;5.05;;;17.60;72.90;;;;;;5055190;28;20080;-76
2024/02/07 13:11:57;;;;;;;12.63;5.10;;;17.60;73.10;;;;;;5054575;28;20123;-77
2024/02/07 13:14:22;;;;;;;12.70;4.72;;;17.60;73.50;;;;;;5053748;28;20490;-75
2024/02/07 13:16:51;;;;;;;12.43;5.22;;;17.60;73.80;;;;;;5053572;28;20032;-77
2024/02/07 13:19:18;;;;;;;19.75;4.93;;;17.60;73.90;;;;;;5053855;28;20065;-74
2024/02/07 13:21:44;;;;;;;11.55;5.20;;;17.60;74.10;;;;;;5053046;28;20528;-75
2024/02/07 13:24:19;;;;;;;11.73;4.45;;;17.60;74.10;;;;;;5036064;28;20033;-76
2024/02/07 13:26:46;;;;;;;11.55;4.03;;;17.50;74.20;;;;;;5054023;28;20098;-76
2024/02/07 13:29:13;;;;;;;12.95;4.38;;;17.50;74.40;;;;;;5053685;28;20041;-76
2024/02/07 13:31:40;;;;;;;11.35;4.00;;;17.50;74.40;;;;;;5036697;28;20033;-76